This is the latest recevied weather packets stored in our database for station/object N7JP. If no packets are shown the sender has not sent any weather packets the latest 1 day(s).
| Time | Temp. | Humidity | Pressure | Rain* | Wind** | Luminosity | Snow |
|---|---|---|---|---|---|---|---|
| 1778036131 | 14.44° C | 81% | 1009.7 hPa | 0 mm | 0.45 m/s, 345° | - | - |
| 1778035210 | 15° C | 80% | 1009.6 hPa | 0 mm | 0.89 m/s, 50° | - | - |
| 1778034301 | 15.56° C | 80% | 1009.5 hPa | 0 mm | 0.45 m/s, 59° | - | - |
| 1778033374 | 15° C | 81% | 1009.6 hPa | 0 mm | 0.45 m/s, 290° | - | - |
| 1778032469 | 15.56° C | 79% | 1009.6 hPa | 0 mm | 0.45 m/s, 299° | - | - |
| 1778031570 | 15.56° C | 78% | 1009.6 hPa | 0 mm | 0.45 m/s, 302° | - | - |
| 1778030668 | 16.11° C | 75% | 1009.6 hPa | 0 mm | 1.34 m/s, 307° | - | - |
| 1778029761 | 17.78° C | 72% | 1009.6 hPa | 0 mm | 1.79 m/s, 199° | - | - |
| 1778028833 | 17.78° C | 73% | 1009.7 hPa | 0 mm | 1.34 m/s, 194° | - | - |
| 1778027933 | 17.78° C | 73% | 1009.7 hPa | 0 mm | 1.34 m/s, 140° | - | - |
| 1778027034 | 17.78° C | 73% | 1009.7 hPa | 0 mm | 1.79 m/s, 116° | - | - |
| 1778026134 | 17.22° C | 74% | 1009.8 hPa | 0 mm | 2.24 m/s, 166° | - | - |
| 1778025218 | 17.22° C | 73% | 1009.9 hPa | 0 mm | 1.79 m/s, 87° | - | - |
| 1778024316 | 17.22° C | 73% | 1010.1 hPa | 0 mm | 1.34 m/s, 119° | - | - |
| 1778023413 | 16.67° C | 74% | 1010.2 hPa | 0 mm | 2.68 m/s, 140° | - | - |
| 1778022510 | 16.67° C | 75% | 1010.3 hPa | 0 mm | 2.68 m/s, 188° | - | - |
| 1778021609 | 16.11° C | 76% | 1010.4 hPa | 0 mm | 2.68 m/s, 173° | - | - |
| 1778020683 | 15.56° C | 75% | 1010.5 hPa | 0 mm | 3.58 m/s, 141° | - | - |
| 1778019764 | 16.11° C | 77% | 1010.7 hPa | 0 mm | 3.58 m/s, 148° | - | - |
| 1778018848 | 16.11° C | 75% | 1010.7 hPa | 0 mm | 2.68 m/s, 142° | - | - |
| 1778017934 | 16.11° C | 77% | 1010.9 hPa | 0 mm | 2.24 m/s, 161° | - | - |
| 1778017033 | 15.56° C | 78% | 1011 hPa | 0 mm | 2.68 m/s, 100° | - | - |
| 1778016134 | 15.56° C | 77% | 1011.1 hPa | 0 mm | 2.24 m/s, 89° | - | - |
| 1778015233 | 15.56° C | 78% | 1011 hPa | 0 mm | 2.24 m/s, 112° | - | - |
| 1778014335 | 15.56° C | 78% | 1011.1 hPa | 0 mm | 2.24 m/s, 153° | - | - |
* Rain latest hour (hover to see other rain measurements)
** Current wind speed in m/s (hover to see current wind gust speed)